createdAt,value
2023-01-01T00:00:24.094Z,26.40
2023-01-01T00:01:20.801Z,26.90
2023-01-01T00:02:17.527Z,27.33
2023-01-01T00:03:14.962Z,29.05
2023-01-01T00:04:13.850Z,27.25
2023-01-01T00:05:10.510Z,24.70
2023-01-01T00:06:12.066Z,20.55
2023-01-01T00:07:08.909Z,16.65
2023-01-01T00:08:05.689Z,20.08
2023-01-01T00:09:20.925Z,21.40
2023-01-01T00:10:30.081Z,20.35
2023-01-01T00:11:26.759Z,19.23
2023-01-01T00:12:23.393Z,17.38
2023-01-01T00:13:19.993Z,16.52
2023-01-01T00:14:16.611Z,14.80
2023-01-01T00:15:13.336Z,12.35
2023-01-01T00:16:12.653Z,14.27
2023-01-01T00:17:09.313Z,13.07
2023-01-01T00:18:06.019Z,14.70
2023-01-01T00:19:03.100Z,14.48
2023-01-01T00:19:59.784Z,13.07
2023-01-01T00:21:13.172Z,16.38
2023-01-01T00:22:43.654Z,16.70
2023-01-01T00:23:26.327Z,15.13
2023-01-01T00:24:22.957Z,14.98
2023-01-01T00:25:19.849Z,15.18
2023-01-01T00:26:18.430Z,16.67
2023-01-01T00:27:15.041Z,17.15
2023-01-01T00:28:11.658Z,15.50
2023-01-01T00:29:08.416Z,13.68
2023-01-01T00:30:05.545Z,17.55
2023-01-01T00:31:10.362Z,16.80
2023-01-01T00:32:11.436Z,14.65
2023-01-01T00:33:08.280Z,16.42
2023-01-01T00:34:05.736Z,16.25
2023-01-01T00:35:04.749Z,18.42
2023-01-01T00:36:12.859Z,18.48
2023-01-01T00:37:09.472Z,19.95
2023-01-01T00:38:06.664Z,18.90
2023-01-01T00:39:03.980Z,22.08
2023-01-01T00:40:00.690Z,21.95
2023-01-01T00:40:57.239Z,18.13
2023-01-01T00:41:53.773Z,20.35
2023-01-01T00:42:50.459Z,20.98
2023-01-01T00:43:47.465Z,19.77
2023-01-01T00:44:44.319Z,19.90
2023-01-01T00:45:41.050Z,19.23
2023-01-01T00:46:37.769Z,16.42
2023-01-01T00:47:34.445Z,19.00
2023-01-01T00:48:31.303Z,16.02
2023-01-01T00:49:28.015Z,17.48
2023-01-01T00:50:24.642Z,16.42
2023-01-01T00:51:21.331Z,18.17
2023-01-01T00:52:17.966Z,15.32
2023-01-01T00:53:15.126Z,15.75
2023-01-01T00:54:11.736Z,13.57
2023-01-01T00:55:08.755Z,15.52
2023-01-01T00:56:05.980Z,14.52
2023-01-01T00:57:02.637Z,14.10
2023-01-01T00:57:59.242Z,14.23
2023-01-01T00:59:00.874Z,13.55
2023-01-01T00:59:58.458Z,12.27
2023-01-01T01:00:55.433Z,12.73
2023-01-01T01:01:52.257Z,11.77
2023-01-01T01:02:49.070Z,11.63
2023-01-01T01:03:45.862Z,12.60
2023-01-01T01:04:42.509Z,11.27
2023-01-01T01:05:39.148Z,11.40
2023-01-01T01:06:36.237Z,11.10
2023-01-01T01:07:37.203Z,10.68
2023-01-01T01:08:35.243Z,11.75
2023-01-01T01:09:31.833Z,10.15
2023-01-01T01:10:28.540Z,9.15
2023-01-01T01:11:25.874Z,9.27
2023-01-01T01:12:22.463Z,7.63
2023-01-01T01:13:19.052Z,11.88
2023-01-01T01:14:15.662Z,10.07
2023-01-01T01:15:12.606Z,11.50
2023-01-01T01:16:11.063Z,11.32
2023-01-01T01:17:07.724Z,10.48
2023-01-01T01:18:04.485Z,11.77
2023-01-01T01:19:03.074Z,13.85
2023-01-01T01:19:59.720Z,15.43
2023-01-01T01:20:56.317Z,15.25
2023-01-01T01:21:52.938Z,15.02
2023-01-01T01:22:50.202Z,11.15
2023-01-01T01:23:48.667Z,14.77
2023-01-01T01:24:45.288Z,15.13
2023-01-01T01:25:41.901Z,13.77
2023-01-01T01:26:38.513Z,12.70
2023-01-01T01:27:35.068Z,14.85
2023-01-01T01:28:31.652Z,13.65
2023-01-01T01:29:28.356Z,14.98
2023-01-01T01:30:24.979Z,13.70
2023-01-01T01:31:23.615Z,14.20
2023-01-01T01:32:20.469Z,13.63
2023-01-01T01:33:17.138Z,12.80
2023-01-01T01:34:16.489Z,14.60
2023-01-01T01:35:13.671Z,13.52
2023-01-01T01:36:11.715Z,13.98
2023-01-01T01:37:08.370Z,13.43
2023-01-01T01:38:05.023Z,12.85
2023-01-01T01:39:01.609Z,15.20
2023-01-01T01:39:58.277Z,14.15
2023-01-01T01:40:54.895Z,15.18
2023-01-01T01:41:51.470Z,16.20
2023-01-01T01:42:49.172Z,16.15
2023-01-01T01:44:07.692Z,17.90
2023-01-01T01:45:07.161Z,15.57
2023-01-01T01:46:41.098Z,13.68
2023-01-01T01:47:58.858Z,12.63
2023-01-01T01:48:59.857Z,11.02
2023-01-01T01:50:23.921Z,11.05
2023-01-01T01:51:26.749Z,12.57
2023-01-01T01:52:23.478Z,11.52
2023-01-01T01:53:24.108Z,13.88
2023-01-01T01:54:24.181Z,17.67
2023-01-01T01:55:20.827Z,22.40
2023-01-01T01:56:28.659Z,21.88
2023-01-01T01:57:25.410Z,21.88
2023-01-01T01:58:22.611Z,20.35
2023-01-01T01:59:21.903Z,21.75
2023-01-01T02:00:19.823Z,20.27
2023-01-01T02:01:16.606Z,19.35
2023-01-01T02:02:38.626Z,21.27
2023-01-01T02:03:44.505Z,20.55
2023-01-01T02:04:42.703Z,19.13
2023-01-01T02:05:41.437Z,21.92
2023-01-01T02:06:39.445Z,17.48
2023-01-01T02:07:36.443Z,17.52
2023-01-01T02:08:35.410Z,19.38
2023-01-01T02:09:32.090Z,18.73
2023-01-01T02:10:29.029Z,16.00
2023-01-01T02:11:25.754Z,18.10
2023-01-01T02:12:22.482Z,18.38
2023-01-01T02:13:19.415Z,17.38
2023-01-01T02:14:16.226Z,20.23
2023-01-01T02:15:13.292Z,20.15
2023-01-01T02:16:24.707Z,18.42
2023-01-01T02:17:43.009Z,14.75
2023-01-01T02:18:50.089Z,13.40
2023-01-01T02:20:01.718Z,18.58
2023-01-01T02:21:11.779Z,16.67
2023-01-01T02:22:28.729Z,17.10
2023-01-01T02:23:34.431Z,16.48
2023-01-01T02:24:43.046Z,18.88
2023-01-01T02:26:07.442Z,17.42
2023-01-01T02:27:20.870Z,22.73
2023-01-01T02:28:43.877Z,21.92
2023-01-01T02:29:51.083Z,19.40
2023-01-01T02:30:48.906Z,20.25
2023-01-01T02:32:21.671Z,15.85
2023-01-01T02:33:22.794Z,18.58
2023-01-01T02:34:24.235Z,22.33
2023-01-01T02:35:34.783Z,22.25
2023-01-01T02:36:34.858Z,20.92
2023-01-01T02:37:31.668Z,21.70
2023-01-01T02:38:32.757Z,23.15
2023-01-01T02:39:34.771Z,21.70
2023-01-01T02:40:31.860Z,26.05
2023-01-01T02:41:36.515Z,20.80
2023-01-01T02:42:33.836Z,18.15
2023-01-01T02:43:30.456Z,17.08
2023-01-01T02:44:30.859Z,17.52
2023-01-01T02:45:27.482Z,19.40
2023-01-01T02:47:20.885Z,21.23
2023-01-01T02:48:39.968Z,23.25
2023-01-01T02:49:41.498Z,18.25
2023-01-01T02:50:38.237Z,22.05
2023-01-01T02:51:59.161Z,20.38
2023-01-01T02:53:13.942Z,17.42
2023-01-01T02:54:25.773Z,18.35
2023-01-01T02:55:37.637Z,20.75
2023-01-01T02:56:40.451Z,25.58
2023-01-01T02:57:46.151Z,23.02
2023-01-01T02:59:11.581Z,21.45
2023-01-01T03:00:40.990Z,18.30
2023-01-01T03:01:46.317Z,22.13
2023-01-01T03:03:14.088Z,21.00
2023-01-01T03:04:18.786Z,19.10
2023-01-01T03:05:29.975Z,18.42
2023-01-01T03:06:29.035Z,20.85
2023-01-01T03:07:44.461Z,19.42
2023-01-01T03:09:04.077Z,17.60
2023-01-01T03:10:15.182Z,17.65
2023-01-01T03:11:16.525Z,22.55
2023-01-01T03:12:43.733Z,24.67
2023-01-01T03:14:03.480Z,37.20
2023-01-01T03:15:06.208Z,38.90
2023-01-01T03:16:05.290Z,44.30
2023-01-01T03:17:31.937Z,38.67
2023-01-01T03:18:35.342Z,29.63
2023-01-01T03:19:37.366Z,34.17
2023-01-01T03:20:38.509Z,34.60
2023-01-01T03:21:36.038Z,42.60
2023-01-01T03:23:46.018Z,33.25
2023-01-01T03:25:00.490Z,29.52
2023-01-01T03:26:03.161Z,30.98
2023-01-01T03:27:04.645Z,28.10
2023-01-01T03:28:12.535Z,26.65
2023-01-01T03:29:13.000Z,30.42
2023-01-01T03:30:12.134Z,45.13
2023-01-01T03:31:09.778Z,37.83
2023-01-01T03:32:10.954Z,33.10
2023-01-01T03:33:16.009Z,31.48
2023-01-01T03:34:19.349Z,24.00
2023-01-01T03:35:19.715Z,19.38
2023-01-01T03:36:24.493Z,19.73
2023-01-01T03:37:28.206Z,24.80
2023-01-01T03:38:35.044Z,23.95
2023-01-01T03:39:36.804Z,23.30
2023-01-01T03:40:37.765Z,23.35
2023-01-01T03:41:51.441Z,24.65
2023-01-01T03:43:00.103Z,21.77
2023-01-01T03:44:02.510Z,21.75
2023-01-01T03:46:01.939Z,16.63
2023-01-01T03:46:59.524Z,15.38
2023-01-01T03:47:56.850Z,14.52
2023-01-01T03:49:03.288Z,15.85
2023-01-01T03:50:02.095Z,16.95
2023-01-01T03:51:08.625Z,17.05
2023-01-01T03:52:05.276Z,23.75
2023-01-01T03:53:01.817Z,34.63
2023-01-01T03:54:06.213Z,31.02
2023-01-01T03:55:05.742Z,30.42
2023-01-01T03:56:40.684Z,30.23
2023-01-01T03:57:58.282Z,23.67
2023-01-01T03:59:02.312Z,22.13
2023-01-01T04:00:04.713Z,26.13
2023-01-01T04:02:29.064Z,22.30
2023-01-01T04:03:29.122Z,19.70
2023-01-01T04:04:27.085Z,19.90
2023-01-01T04:05:25.045Z,26.05
2023-01-01T04:06:21.921Z,24.13
2023-01-01T04:07:18.591Z,21.48
2023-01-01T04:08:16.637Z,24.88
2023-01-01T04:09:18.193Z,26.13
2023-01-01T04:10:18.260Z,22.27
2023-01-01T04:11:39.715Z,20.73
2023-01-01T04:12:36.344Z,19.05
2023-01-01T04:13:46.575Z,19.13
2023-01-01T04:14:43.583Z,17.92
2023-01-01T04:15:40.252Z,18.70
2023-01-01T04:16:37.001Z,18.50
2023-01-01T04:17:33.674Z,21.25
2023-01-01T04:18:30.235Z,21.20
2023-01-01T04:19:26.918Z,21.38
2023-01-01T04:20:24.556Z,20.65
2023-01-01T04:21:21.181Z,19.20
2023-01-01T04:22:18.165Z,15.73
2023-01-01T04:23:14.739Z,15.65
2023-01-01T04:24:11.540Z,15.95
2023-01-01T04:25:09.260Z,12.68
2023-01-01T04:26:06.139Z,12.82
2023-01-01T04:27:03.047Z,14.93
2023-01-01T04:27:59.737Z,16.88
2023-01-01T04:28:56.343Z,16.58
2023-01-01T04:29:52.952Z,17.80
2023-01-01T04:30:49.529Z,15.32
2023-01-01T04:31:47.202Z,14.48
2023-01-01T04:32:44.238Z,14.77
2023-01-01T04:33:40.935Z,13.20
2023-01-01T04:34:37.587Z,16.80
2023-01-01T04:35:34.190Z,17.02
2023-01-01T04:36:30.826Z,17.65
2023-01-01T04:37:27.451Z,16.00
2023-01-01T04:38:24.038Z,21.02
2023-01-01T04:39:20.692Z,24.88
2023-01-01T04:40:17.413Z,26.17
2023-01-01T04:41:13.948Z,25.55
2023-01-01T04:42:10.586Z,30.48
2023-01-01T04:43:07.180Z,33.30
2023-01-01T04:44:04.087Z,24.65
2023-01-01T04:45:00.843Z,31.45
2023-01-01T04:45:58.250Z,33.70
2023-01-01T04:46:59.993Z,31.42
2023-01-01T04:47:56.967Z,27.23
2023-01-01T04:48:53.688Z,24.20
2023-01-01T04:49:50.257Z,25.02
2023-01-01T04:50:57.687Z,26.20
2023-01-01T04:51:54.278Z,30.08
2023-01-01T04:52:53.084Z,31.38
2023-01-01T04:53:49.710Z,29.98
2023-01-01T04:54:46.504Z,30.35
2023-01-01T04:55:43.075Z,27.88
2023-01-01T04:56:39.688Z,24.23
2023-01-01T04:57:36.304Z,22.80
2023-01-01T04:58:33.943Z,25.17
2023-01-01T04:59:31.128Z,26.75
2023-01-01T05:00:27.766Z,27.38
2023-01-01T05:01:28.770Z,24.42
2023-01-01T05:02:26.096Z,27.70
2023-01-01T05:03:22.790Z,24.50
2023-01-01T05:04:19.362Z,33.88
2023-01-01T05:05:16.231Z,38.50
2023-01-01T05:06:13.784Z,29.48
2023-01-01T05:07:10.433Z,36.33
2023-01-01T05:08:07.118Z,33.60
2023-01-01T05:09:04.161Z,34.08
2023-01-01T05:10:00.868Z,32.78
2023-01-01T05:11:08.201Z,30.67
2023-01-01T05:12:05.095Z,30.02
2023-01-01T05:13:01.733Z,35.22
2023-01-01T05:14:00.251Z,29.50
2023-01-01T05:14:56.851Z,27.13
2023-01-01T05:15:53.504Z,24.65
2023-01-01T05:16:50.140Z,24.90
2023-01-01T05:17:46.749Z,23.92
2023-01-01T05:18:44.298Z,23.90
2023-01-01T05:19:40.927Z,24.58
2023-01-01T05:20:37.524Z,27.35
2023-01-01T05:21:38.475Z,30.75
2023-01-01T05:22:35.109Z,27.52
2023-01-01T05:23:32.053Z,27.45
2023-01-01T05:24:28.596Z,23.83
2023-01-01T05:25:25.217Z,21.38
2023-01-01T05:26:25.049Z,22.40
2023-01-01T05:27:21.793Z,21.33
2023-01-01T05:28:18.329Z,19.77
2023-01-01T05:29:16.980Z,20.88
2023-01-01T05:30:14.123Z,20.33
2023-01-01T05:31:17.142Z,24.00
2023-01-01T05:33:09.281Z,30.92
2023-01-01T05:35:01.497Z,74.25
2023-01-01T05:35:58.197Z,52.90
2023-01-01T05:36:55.022Z,29.40
2023-01-01T05:37:52.030Z,26.98
2023-01-01T05:38:48.709Z,21.80
2023-01-01T05:39:45.330Z,23.88
2023-01-01T05:40:42.109Z,28.02
2023-01-01T05:41:39.830Z,23.85
2023-01-01T05:42:36.463Z,22.65
2023-01-01T05:43:33.102Z,19.15
2023-01-01T05:44:29.807Z,21.83
2023-01-01T05:45:26.454Z,26.83
2023-01-01T05:46:24.899Z,29.38
2023-01-01T05:47:22.437Z,25.42
2023-01-01T05:48:19.047Z,24.95
2023-01-01T05:49:15.641Z,21.02
2023-01-01T05:51:13.281Z,20.23
2023-01-01T05:52:09.888Z,20.35
2023-01-01T05:53:06.453Z,21.52
2023-01-01T05:54:03.310Z,26.15
2023-01-01T05:55:01.220Z,26.90
2023-01-01T05:55:59.097Z,31.00
2023-01-01T05:56:55.688Z,27.73
2023-01-01T05:57:53.224Z,27.83
2023-01-01T05:58:50.025Z,25.65
2023-01-01T05:59:46.661Z,21.73
2023-01-01T06:00:43.252Z,27.15
2023-01-01T06:01:45.394Z,22.88
2023-01-01T06:02:42.827Z,28.35
2023-01-01T06:03:40.667Z,29.65
2023-01-01T06:04:37.455Z,28.58
2023-01-01T06:05:35.501Z,27.42
2023-01-01T06:06:35.279Z,24.25
2023-01-01T06:07:31.846Z,23.30
2023-01-01T06:08:28.472Z,26.63
2023-01-01T06:09:25.166Z,23.83
2023-01-01T06:10:21.774Z,25.58
2023-01-01T06:11:18.991Z,26.30
2023-01-01T06:12:15.599Z,27.23
2023-01-01T06:13:13.575Z,25.83
2023-01-01T06:14:10.413Z,22.10
2023-01-01T06:15:07.881Z,22.08
2023-01-01T06:16:04.801Z,24.00
2023-01-01T06:17:01.479Z,24.38
2023-01-01T06:17:59.233Z,21.00
2023-01-01T06:18:56.067Z,24.13
2023-01-01T06:19:52.656Z,25.35
2023-01-01T06:20:49.394Z,23.83
2023-01-01T06:21:46.015Z,23.95
2023-01-01T06:22:42.583Z,24.63
2023-01-01T06:23:39.496Z,22.98
2023-01-01T06:24:39.154Z,23.20
2023-01-01T06:25:36.036Z,24.15
2023-01-01T06:26:33.448Z,24.52
2023-01-01T06:27:30.057Z,22.98
2023-01-01T06:28:26.737Z,24.33
2023-01-01T06:29:23.865Z,24.88
2023-01-01T06:30:20.475Z,22.63
2023-01-01T06:31:20.700Z,24.10
2023-01-01T06:32:17.406Z,24.65
2023-01-01T06:33:13.974Z,22.30
2023-01-01T06:34:10.722Z,21.23
2023-01-01T06:35:07.936Z,21.60
2023-01-01T06:36:07.342Z,21.05
2023-01-01T06:37:07.021Z,21.77
2023-01-01T06:38:03.877Z,22.77
2023-01-01T06:39:00.628Z,22.35
2023-01-01T06:39:57.177Z,21.27
2023-01-01T06:40:58.524Z,24.27
2023-01-01T06:41:55.141Z,23.15
2023-01-01T06:42:51.780Z,25.40
2023-01-01T06:43:49.154Z,26.85
2023-01-01T06:44:45.775Z,27.88
2023-01-01T06:45:42.457Z,29.30
2023-01-01T06:46:39.064Z,26.45
2023-01-01T06:47:36.485Z,27.25
2023-01-01T06:48:35.571Z,27.27
2023-01-01T06:49:32.182Z,23.58
2023-01-01T06:50:28.883Z,24.65
2023-01-01T06:51:28.010Z,26.73
2023-01-01T06:52:24.573Z,26.15
2023-01-01T06:53:24.732Z,26.38
2023-01-01T06:54:21.451Z,26.73
2023-01-01T06:55:18.108Z,25.35
2023-01-01T06:56:14.849Z,25.65
2023-01-01T06:57:11.507Z,26.00
2023-01-01T06:58:09.972Z,25.40
2023-01-01T06:59:06.836Z,23.55
2023-01-01T07:00:03.770Z,26.25
2023-01-01T07:01:12.166Z,26.38
2023-01-01T07:02:11.975Z,24.58
2023-01-01T07:03:10.873Z,25.92
2023-01-01T07:04:11.157Z,26.08
2023-01-01T07:05:08.028Z,23.15
2023-01-01T07:06:05.881Z,22.83
2023-01-01T07:07:02.682Z,21.88
2023-01-01T07:07:59.303Z,22.10
2023-01-01T07:08:56.000Z,22.83
2023-01-01T07:09:52.559Z,21.83
2023-01-01T07:10:49.194Z,22.98
2023-01-01T07:11:45.879Z,21.35
2023-01-01T07:12:42.546Z,22.23
2023-01-01T07:13:39.205Z,25.38
2023-01-01T07:14:35.919Z,24.83
2023-01-01T07:15:32.692Z,25.90
2023-01-01T07:16:29.423Z,25.42
2023-01-01T07:17:26.031Z,26.38
2023-01-01T07:18:24.205Z,23.08
2023-01-01T07:19:20.812Z,22.33
2023-01-01T07:20:17.431Z,21.63
2023-01-01T07:22:00.317Z,21.77
2023-01-01T07:22:56.882Z,21.55
2023-01-01T07:23:56.290Z,26.42
2023-01-01T07:24:52.866Z,20.00
2023-01-01T07:25:50.707Z,23.90
2023-01-01T07:26:47.835Z,25.77
2023-01-01T07:27:44.445Z,25.08
2023-01-01T07:28:41.010Z,28.13
2023-01-01T07:29:37.623Z,27.77
2023-01-01T07:30:34.323Z,35.28
2023-01-01T07:31:31.012Z,27.98
2023-01-01T07:32:27.674Z,34.45
2023-01-01T07:33:24.519Z,30.33
2023-01-01T07:34:22.730Z,30.23
2023-01-01T07:35:19.317Z,28.90
2023-01-01T07:36:15.926Z,27.73
2023-01-01T07:37:12.541Z,27.73
2023-01-01T07:38:09.098Z,30.38
2023-01-01T07:39:05.660Z,32.38
2023-01-01T07:40:02.333Z,25.55
2023-01-01T07:40:58.954Z,30.77
2023-01-01T07:41:55.551Z,31.48
2023-01-01T07:42:52.149Z,30.60
2023-01-01T07:43:48.789Z,33.95
2023-01-01T07:44:45.379Z,30.67
2023-01-01T07:45:41.997Z,31.70
2023-01-01T07:46:38.688Z,35.13
2023-01-01T07:47:35.464Z,35.53
2023-01-01T07:48:36.160Z,36.90
2023-01-01T07:49:36.522Z,31.98
2023-01-01T07:50:33.627Z,34.67
2023-01-01T07:51:30.237Z,35.33
2023-01-01T07:52:26.785Z,31.42
2023-01-01T07:53:23.408Z,31.67
2023-01-01T07:54:20.080Z,37.63
2023-01-01T07:55:18.394Z,38.33
2023-01-01T07:56:15.085Z,36.30
2023-01-01T07:57:11.791Z,36.42
2023-01-01T07:58:09.963Z,35.50
2023-01-01T07:59:06.585Z,35.50
2023-01-01T08:00:04.007Z,36.30
2023-01-01T08:01:00.684Z,34.80
2023-01-01T08:01:57.865Z,35.20
2023-01-01T08:02:54.591Z,31.95
2023-01-01T08:03:52.947Z,34.70
2023-01-01T08:04:49.547Z,33.28
2023-01-01T08:05:46.282Z,35.38
2023-01-01T08:06:42.856Z,30.83
2023-01-01T08:07:39.607Z,29.27
2023-01-01T08:08:36.296Z,33.50
2023-01-01T08:09:32.858Z,30.75
2023-01-01T08:10:29.520Z,31.50
2023-01-01T08:11:26.338Z,31.15
2023-01-01T08:12:22.999Z,31.90
2023-01-01T08:13:19.610Z,29.60
2023-01-01T08:14:17.112Z,31.10
2023-01-01T08:15:14.736Z,30.88
2023-01-01T08:16:11.393Z,32.05
2023-01-01T08:17:08.016Z,31.27
2023-01-01T08:18:05.706Z,30.77
2023-01-01T08:19:02.561Z,33.25
2023-01-01T08:19:59.200Z,30.08
2023-01-01T08:20:57.524Z,27.67
2023-01-01T08:21:54.313Z,30.35
2023-01-01T08:22:50.933Z,29.35
2023-01-01T08:23:47.565Z,31.13
2023-01-01T08:24:44.139Z,30.33
2023-01-01T08:25:40.744Z,29.63
2023-01-01T08:26:39.798Z,29.67
2023-01-01T08:27:36.521Z,28.30
2023-01-01T08:28:33.199Z,28.98
2023-01-01T08:29:29.821Z,30.80
2023-01-01T08:30:26.466Z,32.92
2023-01-01T08:31:23.760Z,31.35
2023-01-01T08:32:20.418Z,31.25
2023-01-01T08:33:17.131Z,30.75
2023-01-01T08:34:13.738Z,32.58
2023-01-01T08:35:10.397Z,29.67
2023-01-01T08:36:07.321Z,31.10
2023-01-01T08:37:04.514Z,31.50
2023-01-01T08:38:01.225Z,32.20
2023-01-01T08:38:57.925Z,32.22
2023-01-01T08:39:54.543Z,33.25
2023-01-01T08:40:51.161Z,28.55
2023-01-01T08:41:47.775Z,30.50
2023-01-01T08:42:44.401Z,30.85
2023-01-01T08:43:41.012Z,26.92
2023-01-01T08:44:37.577Z,31.67
2023-01-01T08:45:34.524Z,26.90
2023-01-01T08:46:31.108Z,29.58
2023-01-01T08:47:27.760Z,32.85
2023-01-01T08:48:28.880Z,30.73
2023-01-01T08:49:27.486Z,30.23
2023-01-01T08:50:24.154Z,31.27
2023-01-01T08:51:20.715Z,27.08
2023-01-01T08:52:17.668Z,31.52
2023-01-01T08:53:14.330Z,32.45
2023-01-01T08:54:10.974Z,27.92
2023-01-01T08:55:07.884Z,28.30
2023-01-01T08:56:07.370Z,29.67
2023-01-01T08:57:05.098Z,28.50
2023-01-01T08:58:01.704Z,30.08
2023-01-01T08:59:03.838Z,31.15
2023-01-01T09:00:01.045Z,27.73
2023-01-01T09:00:59.459Z,31.25
2023-01-01T09:01:56.255Z,30.60
2023-01-01T09:02:53.048Z,26.95
2023-01-01T09:03:50.069Z,29.15
2023-01-01T09:04:46.682Z,28.98
2023-01-01T09:05:46.206Z,31.73
2023-01-01T09:06:43.030Z,28.73
2023-01-01T09:07:39.672Z,30.25
2023-01-01T09:08:36.291Z,27.13
2023-01-01T09:09:32.895Z,29.63
2023-01-01T09:10:30.491Z,30.27
2023-01-01T09:11:28.418Z,27.70
2023-01-01T09:12:25.046Z,33.70
2023-01-01T09:13:21.974Z,32.33
2023-01-01T09:14:19.111Z,32.08
2023-01-01T09:15:18.551Z,28.23
2023-01-01T09:16:15.188Z,27.77
2023-01-01T09:17:11.804Z,32.35
2023-01-01T09:18:09.190Z,33.03
2023-01-01T09:19:05.760Z,35.97
2023-01-01T09:20:02.376Z,38.20
2023-01-01T09:20:58.972Z,42.08
2023-01-01T09:21:56.106Z,43.80
2023-01-01T09:22:52.786Z,43.22
2023-01-01T09:23:49.455Z,42.72
2023-01-01T09:24:46.108Z,46.70
2023-01-01T09:25:42.727Z,42.28
2023-01-01T09:26:39.297Z,44.50
2023-01-01T09:27:35.959Z,45.80
2023-01-01T09:28:32.668Z,45.33
2023-01-01T09:29:29.361Z,44.17
2023-01-01T09:30:26.365Z,44.00
2023-01-01T09:31:23.011Z,46.80
2023-01-01T09:32:19.730Z,40.25
2023-01-01T09:33:16.294Z,43.40
2023-01-01T09:34:13.194Z,41.92
2023-01-01T09:35:10.117Z,41.90
2023-01-01T09:36:28.137Z,39.58
2023-01-01T09:37:24.826Z,45.08
2023-01-01T09:38:21.459Z,42.67
2023-01-01T09:39:18.133Z,43.70
2023-01-01T09:40:32.256Z,35.05
2023-01-01T09:41:34.840Z,37.95
2023-01-01T09:42:49.338Z,33.60
2023-01-01T09:44:01.212Z,45.58
2023-01-01T09:45:29.466Z,42.17
2023-01-01T09:46:31.631Z,39.38
2023-01-01T09:47:42.694Z,42.70
2023-01-01T09:48:45.967Z,42.40
2023-01-01T09:49:46.120Z,43.83
2023-01-01T09:50:45.491Z,41.90
2023-01-01T09:51:51.120Z,47.55
2023-01-01T09:53:01.344Z,47.53
2023-01-01T09:54:25.542Z,42.47
2023-01-01T09:55:30.608Z,43.55
2023-01-01T09:56:29.446Z,39.45
2023-01-01T09:57:30.027Z,40.60
2023-01-01T09:58:28.647Z,44.30
2023-01-01T09:59:26.019Z,34.33
2023-01-01T10:00:23.125Z,42.75
2023-01-01T10:01:33.492Z,42.60
2023-01-01T10:02:39.692Z,42.15
2023-01-01T10:04:02.415Z,42.05
2023-01-01T10:05:26.525Z,40.00
2023-01-01T10:06:28.658Z,43.85
2023-01-01T10:07:28.308Z,35.90
2023-01-01T10:08:36.917Z,38.08
2023-01-01T10:10:04.565Z,39.13
2023-01-01T10:11:12.685Z,36.08
2023-01-01T10:12:30.557Z,36.47
2023-01-01T10:13:32.478Z,36.85
2023-01-01T10:14:34.596Z,35.13
2023-01-01T10:15:39.793Z,39.03
2023-01-01T10:16:39.464Z,39.47
2023-01-01T10:17:46.566Z,37.78
2023-01-01T10:18:46.378Z,44.40
2023-01-01T10:19:55.236Z,39.38
2023-01-01T10:21:07.655Z,37.90
2023-01-01T10:22:09.231Z,42.60
2023-01-01T10:23:19.728Z,38.87
2023-01-01T10:24:35.425Z,40.60
2023-01-01T10:25:34.231Z,43.42
2023-01-01T10:26:32.943Z,42.40
2023-01-01T10:27:39.367Z,37.78
2023-01-01T10:29:01.637Z,38.00
2023-01-01T10:30:04.768Z,39.30
2023-01-01T10:31:15.830Z,40.20
2023-01-01T10:32:18.696Z,48.17
2023-01-01T10:33:15.362Z,46.97
2023-01-01T10:34:17.936Z,44.35
2023-01-01T10:35:24.086Z,46.88
2023-01-01T10:36:26.641Z,40.40
2023-01-01T10:37:23.365Z,43.65
2023-01-01T10:38:28.892Z,41.45
2023-01-01T10:39:26.855Z,37.13
2023-01-01T10:40:26.661Z,45.58
2023-01-01T10:41:23.314Z,41.05
2023-01-01T10:42:19.980Z,36.45
2023-01-01T10:43:16.584Z,39.55
2023-01-01T10:44:16.070Z,35.30
2023-01-01T10:45:16.024Z,33.63
2023-01-01T10:46:15.770Z,33.20
2023-01-01T10:47:30.091Z,32.00
2023-01-01T10:48:30.473Z,37.17
2023-01-01T10:49:27.085Z,33.45
2023-01-01T10:51:00.163Z,35.92
2023-01-01T10:51:56.755Z,36.72
2023-01-01T10:52:56.638Z,32.50
2023-01-01T10:53:55.548Z,32.10
2023-01-01T10:54:52.289Z,32.13
2023-01-01T10:55:50.938Z,28.67
2023-01-01T10:56:47.682Z,28.33
2023-01-01T10:57:44.369Z,29.05
2023-01-01T10:58:41.174Z,32.58
2023-01-01T10:59:40.268Z,30.75
2023-01-01T11:00:36.969Z,26.00
2023-01-01T11:01:34.186Z,27.02
2023-01-01T11:02:31.096Z,22.42
2023-01-01T11:03:27.890Z,25.67
2023-01-01T11:04:24.588Z,27.52
2023-01-01T11:05:22.777Z,24.20
2023-01-01T11:06:24.662Z,22.00
2023-01-01T11:07:33.764Z,21.63
2023-01-01T11:08:32.944Z,23.35
2023-01-01T11:09:37.127Z,21.00
2023-01-01T11:10:34.125Z,24.52
2023-01-01T11:11:43.172Z,22.73
2023-01-01T11:13:04.867Z,23.67
2023-01-01T11:14:04.669Z,20.45
2023-01-01T11:15:02.219Z,22.05
2023-01-01T11:16:00.047Z,20.52
2023-01-01T11:16:57.861Z,23.80
2023-01-01T11:18:04.283Z,24.42
2023-01-01T11:19:04.721Z,23.55
2023-01-01T11:20:04.530Z,25.50
2023-01-01T11:21:02.528Z,27.25
2023-01-01T11:22:00.290Z,31.25
2023-01-01T11:22:56.939Z,32.47
2023-01-01T11:24:18.091Z,28.15
2023-01-01T11:25:28.993Z,34.40
2023-01-01T11:26:26.992Z,31.95
2023-01-01T11:27:25.536Z,27.95
2023-01-01T11:28:22.593Z,31.08
2023-01-01T11:29:29.344Z,32.75
2023-01-01T11:30:28.692Z,35.03
2023-01-01T11:31:29.708Z,34.53
2023-01-01T11:32:36.206Z,38.97
2023-01-01T11:33:36.899Z,33.97
2023-01-01T11:34:43.526Z,33.90
2023-01-01T11:35:50.784Z,33.20
2023-01-01T11:36:47.432Z,33.20
2023-01-01T11:37:45.985Z,32.38
2023-01-01T11:38:42.644Z,34.08
2023-01-01T11:39:43.976Z,42.03
2023-01-01T11:40:46.356Z,34.65
2023-01-01T11:41:50.243Z,37.33
2023-01-01T11:42:50.907Z,33.05
2023-01-01T11:43:55.066Z,31.92
2023-01-01T11:44:56.609Z,36.10
2023-01-01T11:45:55.498Z,31.45
2023-01-01T11:46:52.559Z,38.40
2023-01-01T11:48:11.117Z,32.65
2023-01-01T11:49:25.279Z,29.00
2023-01-01T11:50:30.900Z,32.10
2023-01-01T11:51:32.917Z,31.95
2023-01-01T11:52:37.137Z,35.70
2023-01-01T11:53:42.209Z,28.30
2023-01-01T11:54:39.328Z,29.88
2023-01-01T11:56:19.183Z,28.45
2023-01-01T11:57:23.835Z,29.05
2023-01-01T11:59:05.015Z,25.58
2023-01-01T12:00:04.923Z,26.45
2023-01-01T12:01:09.141Z,23.98
2023-01-01T12:02:13.868Z,27.15
2023-01-01T12:03:22.114Z,27.75
2023-01-01T12:04:37.524Z,25.55
2023-01-01T12:05:47.123Z,24.33
2023-01-01T12:06:51.237Z,24.48
2023-01-01T12:07:48.795Z,21.92
2023-01-01T12:08:52.908Z,21.23
2023-01-01T12:09:58.945Z,21.33
2023-01-01T12:11:03.528Z,22.10
2023-01-01T12:12:10.110Z,17.63
2023-01-01T12:13:17.659Z,20.95
2023-01-01T12:14:39.972Z,23.83
2023-01-01T12:15:48.125Z,20.20
2023-01-01T12:16:55.892Z,18.73
2023-01-01T12:18:01.183Z,20.15
2023-01-01T12:19:07.293Z,15.38
2023-01-01T12:20:42.980Z,17.20
2023-01-01T12:21:49.095Z,16.17
2023-01-01T12:22:49.281Z,17.55
2023-01-01T12:23:46.196Z,18.80
2023-01-01T12:24:44.168Z,20.15
2023-01-01T12:25:50.689Z,18.73
2023-01-01T12:27:10.552Z,22.77
2023-01-01T12:28:39.782Z,21.05
2023-01-01T12:29:45.383Z,27.38
2023-01-01T12:31:02.163Z,22.73
2023-01-01T12:32:07.158Z,24.55
2023-01-01T12:33:16.836Z,27.73
2023-01-01T12:34:23.614Z,22.45
2023-01-01T12:35:41.887Z,26.35
2023-01-01T12:37:04.847Z,24.23
2023-01-01T12:38:22.937Z,23.98
2023-01-01T12:39:44.182Z,25.90
2023-01-01T12:40:54.736Z,24.77
2023-01-01T12:42:19.856Z,24.70
2023-01-01T12:43:35.327Z,21.85
2023-01-01T12:44:50.812Z,24.15
2023-01-01T12:46:15.531Z,23.70
2023-01-01T12:47:27.260Z,21.15
2023-01-01T12:48:35.856Z,23.65
2023-01-01T12:50:07.844Z,19.50
2023-01-01T12:51:22.903Z,23.60
2023-01-01T12:52:59.501Z,21.13
2023-01-01T12:54:14.391Z,23.98
2023-01-01T12:55:38.199Z,20.48
2023-01-01T12:57:51.599Z,21.02
2023-01-01T12:59:01.858Z,18.20
2023-01-01T13:00:02.929Z,18.85
2023-01-01T13:01:06.270Z,19.05
2023-01-01T13:02:14.464Z,19.35
2023-01-01T13:03:47.949Z,19.90
2023-01-01T13:04:47.907Z,21.58
2023-01-01T13:05:50.489Z,17.65
2023-01-01T13:06:52.439Z,18.33
2023-01-01T13:07:53.329Z,18.90
2023-01-01T13:08:54.073Z,18.98
2023-01-01T13:09:51.168Z,16.73
2023-01-01T13:10:50.855Z,16.52
2023-01-01T13:11:54.910Z,16.58
2023-01-01T13:12:54.450Z,17.70
2023-01-01T13:13:51.437Z,13.75
2023-01-01T13:14:52.302Z,15.80
2023-01-01T13:15:58.559Z,16.23